createdAt,value
2017-10-21T00:00:30.157Z,92.30
2017-10-21T00:03:00.858Z,92.50
2017-10-21T00:05:33.064Z,92.70
2017-10-21T00:08:04.481Z,92.70
2017-10-21T00:10:39.995Z,92.70
2017-10-21T00:13:10.906Z,92.70
2017-10-21T00:15:42.338Z,92.80
2017-10-21T00:18:12.966Z,92.90
2017-10-21T00:20:46.722Z,93.00
2017-10-21T00:23:17.114Z,93.00
2017-10-21T00:25:48.625Z,93.10
2017-10-21T00:28:19.371Z,93.10
2017-10-21T00:30:52.041Z,93.00
2017-10-21T00:33:22.176Z,93.10
2017-10-21T00:35:52.848Z,93.10
2017-10-21T00:38:23.135Z,93.10
2017-10-21T00:40:55.529Z,93.20
2017-10-21T00:43:26.715Z,93.20
2017-10-21T00:45:58.121Z,93.30
2017-10-21T00:48:29.056Z,93.30
2017-10-21T00:51:07.158Z,93.40
2017-10-21T00:53:38.245Z,93.30
2017-10-21T00:56:09.275Z,93.30
2017-10-21T00:58:39.552Z,93.30
2017-10-21T01:01:12.698Z,93.20
2017-10-21T01:03:44.044Z,93.70
2017-10-21T01:06:14.607Z,93.30
2017-10-21T01:08:46.442Z,93.70
2017-10-21T01:11:18.367Z,93.40
2017-10-21T01:13:48.668Z,93.30
2017-10-21T01:16:19.240Z,93.20
2017-10-21T01:18:51.334Z,93.40
2017-10-21T01:21:23.537Z,93.30
2017-10-21T01:23:55.653Z,93.20
2017-10-21T01:26:26.443Z,93.20
2017-10-21T01:28:58.173Z,93.10
2017-10-21T01:31:31.134Z,93.00
2017-10-21T01:34:02.237Z,92.90
2017-10-21T01:36:33.536Z,92.80
2017-10-21T01:39:06.541Z,92.50
2017-10-21T01:41:36.834Z,92.50
2017-10-21T01:44:09.296Z,92.60
2017-10-21T01:46:40.249Z,92.30
2017-10-21T01:49:10.728Z,92.30
2017-10-21T01:51:42.976Z,92.30
2017-10-21T01:54:14.085Z,92.30
2017-10-21T01:56:44.940Z,92.20
2017-10-21T01:59:16.354Z,92.20
2017-10-21T02:01:46.711Z,92.10
2017-10-21T02:04:19.752Z,92.20
2017-10-21T02:06:50.792Z,92.20
2017-10-21T02:09:22.791Z,92.20
2017-10-21T02:11:54.429Z,92.20
2017-10-21T02:14:25.437Z,92.20
2017-10-21T02:16:55.704Z,92.30
2017-10-21T02:19:26.232Z,92.20
2017-10-21T02:21:58.608Z,92.20
2017-10-21T02:24:29.556Z,92.10
2017-10-21T02:26:59.880Z,92.10
2017-10-21T02:29:32.693Z,92.20
2017-10-21T02:32:03.382Z,92.10
2017-10-21T02:34:34.689Z,92.20
2017-10-21T02:38:36.436Z,92.10
2017-10-21T02:41:10.960Z,92.40
2017-10-21T02:43:41.246Z,92.50
2017-10-21T02:46:13.998Z,92.70
2017-10-21T02:48:44.519Z,92.70
2017-10-21T02:51:15.477Z,92.40
2017-10-21T02:53:46.735Z,92.30
2017-10-21T02:56:18.033Z,92.50
2017-10-21T02:58:48.598Z,92.70
2017-10-21T03:01:20.036Z,92.60
2017-10-21T03:03:50.681Z,92.70
2017-10-21T03:06:21.621Z,92.80
2017-10-21T03:08:52.605Z,92.90
2017-10-21T03:11:24.764Z,92.90
2017-10-21T03:13:56.945Z,92.90
2017-10-21T03:16:28.615Z,92.80
2017-10-21T03:18:59.243Z,92.80
2017-10-21T03:21:30.079Z,93.00
2017-10-21T03:24:01.596Z,92.70
2017-10-21T03:26:34.430Z,93.10
2017-10-21T03:29:05.250Z,93.10
2017-10-21T03:31:35.923Z,93.00
2017-10-21T03:34:07.788Z,92.90
2017-10-21T03:36:40.313Z,93.00
2017-10-21T03:39:11.771Z,92.90
2017-10-21T03:41:44.145Z,92.80
2017-10-21T03:44:16.155Z,92.80
2017-10-21T03:46:47.507Z,92.90
2017-10-21T03:49:17.724Z,92.70
2017-10-21T03:51:48.910Z,92.90
2017-10-21T03:54:20.158Z,92.90
2017-10-21T03:56:52.074Z,93.00
2017-10-21T03:59:22.422Z,93.00
2017-10-21T04:01:53.179Z,92.90
2017-10-21T04:04:27.483Z,92.80
2017-10-21T04:06:59.686Z,92.80
2017-10-21T04:09:30.870Z,92.90
2017-10-21T04:12:01.436Z,92.80
2017-10-21T04:14:32.368Z,92.90
2017-10-21T04:17:04.766Z,92.90
2017-10-21T04:19:34.848Z,92.90
2017-10-21T04:22:05.875Z,92.70
2017-10-21T04:24:39.438Z,92.70
2017-10-21T04:27:09.974Z,92.80
2017-10-21T04:29:40.429Z,92.90
2017-10-21T04:32:10.964Z,92.90
2017-10-21T04:34:43.054Z,93.20
2017-10-21T04:37:13.296Z,93.10
2017-10-21T04:39:45.882Z,93.10
2017-10-21T04:42:26.343Z,93.30
2017-10-21T04:44:58.646Z,93.60
2017-10-21T04:47:29.488Z,93.60
2017-10-21T04:50:00.112Z,93.50
2017-10-21T04:52:31.304Z,93.90
2017-10-21T04:55:03.018Z,93.70
2017-10-21T04:57:43.887Z,93.80
2017-10-21T05:00:14.086Z,93.70
2017-10-21T05:02:49.641Z,93.60
2017-10-21T05:05:21.252Z,93.20
2017-10-21T05:07:52.418Z,93.20
2017-10-21T05:10:23.902Z,93.50
2017-10-21T05:12:55.453Z,93.50
2017-10-21T05:15:26.699Z,93.50
2017-10-21T05:17:59.455Z,93.50
2017-10-21T05:20:30.360Z,93.50
2017-10-21T05:23:01.185Z,93.30
2017-10-21T05:25:32.122Z,93.50
2017-10-21T05:28:06.299Z,93.40
2017-10-21T05:30:37.718Z,93.60
2017-10-21T05:33:11.548Z,93.60
2017-10-21T05:35:43.146Z,93.50
2017-10-21T05:38:14.771Z,93.60
2017-10-21T05:40:46.362Z,93.60
2017-10-21T05:43:17.710Z,93.80
2017-10-21T05:48:33.214Z,93.30
2017-10-21T05:51:04.179Z,93.50
2017-10-21T05:53:35.294Z,93.50
2017-10-21T05:56:07.491Z,93.30
2017-10-21T05:58:38.291Z,93.30
2017-10-21T06:05:25.901Z,93.40
2017-10-21T06:07:59.922Z,93.20
2017-10-21T06:15:09.278Z,93.00
2017-10-21T06:17:40.645Z,93.10
2017-10-21T06:20:16.597Z,93.00
2017-10-21T06:22:49.379Z,93.10
2017-10-21T06:25:20.048Z,93.10
2017-10-21T06:27:54.934Z,93.00
2017-10-21T06:30:25.264Z,92.90
2017-10-21T06:32:56.341Z,93.10
2017-10-21T06:35:26.754Z,92.90
2017-10-21T06:38:01.424Z,92.90
2017-10-21T06:40:31.745Z,93.00
2017-10-21T06:43:06.452Z,92.90
2017-10-21T06:45:39.667Z,92.80
2017-10-21T06:48:17.693Z,92.90
2017-10-21T06:50:48.302Z,92.90
2017-10-21T06:53:18.848Z,92.90
2017-10-21T06:55:51.120Z,93.10
2017-10-21T06:58:24.474Z,92.90
2017-10-21T07:00:56.985Z,92.80
2017-10-21T07:03:27.589Z,93.20
2017-10-21T07:05:59.088Z,92.90
2017-10-21T07:08:30.823Z,92.90
2017-10-21T07:11:02.784Z,92.90
2017-10-21T07:13:34.111Z,92.40
2017-10-21T07:16:06.625Z,92.60
2017-10-21T07:18:38.916Z,92.60
2017-10-21T07:21:09.576Z,92.50
2017-10-21T07:26:36.816Z,92.70
2017-10-21T07:32:02.254Z,92.30
2017-10-21T07:39:09.338Z,92.40
2017-10-21T07:41:39.586Z,92.50
2017-10-21T07:44:10.490Z,92.70
2017-10-21T07:46:51.050Z,92.70
2017-10-21T07:49:32.289Z,92.60
2017-10-21T07:52:12.887Z,92.30
2017-10-21T07:54:43.719Z,92.50
2017-10-21T08:00:21.592Z,92.70
2017-10-21T08:02:53.311Z,92.50
2017-10-21T08:14:45.900Z,92.30
2017-10-21T08:17:19.498Z,92.20
2017-10-21T08:19:51.082Z,92.30
2017-10-21T08:22:23.045Z,92.40
2017-10-21T08:24:53.595Z,92.40
2017-10-21T08:27:24.562Z,92.20
2017-10-21T08:29:56.504Z,92.20
2017-10-21T08:37:10.682Z,91.70
2017-10-21T08:39:46.933Z,91.90
2017-10-21T08:42:24.471Z,91.90
2017-10-21T08:45:01.192Z,92.00
2017-10-21T08:47:32.650Z,91.70
2017-10-21T08:52:38.771Z,92.20
2017-10-21T08:55:08.867Z,92.40
2017-10-21T08:57:40.836Z,92.90
2017-10-21T09:00:21.867Z,92.90
2017-10-21T09:02:51.926Z,93.00
2017-10-21T09:05:26.148Z,92.80
2017-10-21T09:07:58.788Z,92.60
2017-10-21T09:10:29.049Z,93.00
2017-10-21T09:17:43.204Z,93.30
2017-10-21T09:20:13.753Z,94.60
2017-10-21T09:22:45.114Z,95.20
2017-10-21T09:25:16.314Z,96.80
2017-10-21T09:27:48.910Z,96.80
2017-10-21T09:30:21.850Z,97.20
2017-10-21T09:32:55.259Z,98.10
2017-10-21T09:35:26.075Z,98.50
2017-10-21T09:37:56.558Z,99.00
2017-10-21T09:40:27.269Z,99.20
2017-10-21T09:43:00.438Z,99.80
2017-10-21T09:45:30.745Z,99.80
2017-10-21T09:48:02.588Z,99.90
2017-10-21T09:50:32.786Z,99.60
2017-10-21T09:53:02.993Z,99.90
2017-10-21T09:55:33.732Z,99.90
2017-10-21T09:58:07.035Z,99.90
2017-10-21T10:00:42.722Z,99.90
2017-10-21T10:03:13.408Z,99.90
2017-10-21T10:05:44.235Z,99.90
2017-10-21T10:08:16.735Z,99.90
2017-10-21T10:10:49.844Z,99.90
2017-10-21T10:13:21.664Z,99.90
2017-10-21T10:15:53.036Z,99.90
2017-10-21T10:18:25.949Z,99.90
2017-10-21T10:20:59.508Z,99.90
2017-10-21T10:23:36.561Z,99.90
2017-10-21T10:26:07.974Z,99.90
2017-10-21T10:28:38.946Z,99.90
2017-10-21T10:31:13.725Z,99.90
2017-10-21T10:33:46.832Z,99.90
2017-10-21T10:36:17.767Z,99.90
2017-10-21T10:38:51.837Z,99.90
2017-10-21T10:41:24.609Z,99.90
2017-10-21T10:43:56.088Z,99.90
2017-10-21T10:46:28.211Z,99.90
2017-10-21T10:48:59.661Z,99.90
2017-10-21T10:51:31.189Z,99.90
2017-10-21T10:54:01.198Z,99.90
2017-10-21T10:56:31.293Z,99.90
2017-10-21T10:59:07.824Z,99.90
2017-10-21T11:01:43.163Z,99.90
2017-10-21T11:04:16.740Z,99.90
2017-10-21T11:06:52.222Z,99.90
2017-10-21T11:09:26.204Z,99.90
2017-10-21T11:12:01.219Z,99.90
2017-10-21T11:14:37.991Z,99.90
2017-10-21T11:17:07.996Z,99.90
2017-10-21T11:19:38.380Z,99.90
2017-10-21T11:22:11.195Z,99.90
2017-10-21T11:24:42.039Z,99.90
2017-10-21T11:27:12.581Z,99.90
2017-10-21T11:29:47.400Z,99.90
2017-10-21T11:32:17.671Z,99.90
2017-10-21T11:36:18.588Z,99.90
2017-10-21T11:38:50.283Z,99.90
2017-10-21T11:41:21.865Z,99.90
2017-10-21T11:43:52.397Z,99.90
2017-10-21T11:46:22.524Z,99.90
2017-10-21T11:48:52.545Z,99.90
2017-10-21T11:51:25.904Z,99.90
2017-10-21T11:53:56.378Z,99.90
2017-10-21T11:56:26.774Z,99.90
2017-10-21T11:58:59.656Z,99.90
2017-10-21T12:01:33.593Z,99.90
2017-10-21T12:04:03.885Z,99.90
2017-10-21T12:06:34.832Z,99.90
2017-10-21T12:09:06.242Z,99.90
2017-10-21T12:11:36.798Z,99.90
2017-10-21T12:14:07.277Z,99.90
2017-10-21T12:16:39.301Z,99.90
2017-10-21T12:19:11.664Z,99.90
2017-10-21T12:21:44.512Z,99.90
2017-10-21T12:24:16.620Z,99.90
2017-10-21T12:26:49.772Z,99.90
2017-10-21T12:29:23.262Z,99.90
2017-10-21T12:31:56.127Z,99.90
2017-10-21T12:34:27.658Z,99.90
2017-10-21T12:37:00.103Z,99.90
2017-10-21T12:39:34.024Z,99.90
2017-10-21T12:42:11.532Z,99.90
2017-10-21T12:44:43.971Z,99.90
2017-10-21T12:47:16.612Z,99.90
2017-10-21T12:49:48.847Z,99.90
2017-10-21T12:52:21.999Z,99.90
2017-10-21T12:54:53.646Z,99.90
2017-10-21T12:57:26.177Z,99.90
2017-10-21T12:59:58.950Z,99.90
2017-10-21T13:02:32.297Z,99.90
2017-10-21T13:05:06.627Z,99.90
2017-10-21T13:07:39.132Z,99.90
2017-10-21T13:10:10.281Z,99.90
2017-10-21T13:12:43.744Z,99.90
2017-10-21T13:15:18.120Z,99.90
2017-10-21T13:17:51.310Z,99.90
2017-10-21T13:20:22.228Z,99.90
2017-10-21T13:22:52.603Z,99.90
2017-10-21T13:25:23.503Z,99.90
2017-10-21T13:27:53.700Z,99.90
2017-10-21T13:30:23.706Z,99.90
2017-10-21T13:32:54.240Z,99.90
2017-10-21T13:35:24.264Z,99.90
2017-10-21T13:37:55.111Z,99.90
2017-10-21T13:40:25.452Z,99.90
2017-10-21T13:42:57.656Z,99.90
2017-10-21T13:45:29.648Z,99.90
2017-10-21T13:48:01.737Z,99.90
2017-10-21T13:50:32.554Z,99.90
2017-10-21T13:53:04.390Z,99.90
2017-10-21T13:55:39.707Z,99.90
2017-10-21T13:58:10.412Z,99.90
2017-10-21T14:00:41.582Z,99.90
2017-10-21T14:03:11.793Z,99.90
2017-10-21T14:05:43.406Z,99.40
2017-10-21T14:08:13.514Z,99.40
2017-10-21T14:10:43.851Z,99.10
2017-10-21T14:13:14.429Z,98.60
2017-10-21T14:15:45.969Z,99.30
2017-10-21T14:18:32.245Z,99.30
2017-10-21T14:21:10.632Z,99.40
2017-10-21T14:23:44.258Z,99.70
2017-10-21T14:26:16.764Z,99.60
2017-10-21T14:28:56.621Z,99.70
2017-10-21T14:31:29.993Z,99.70
2017-10-21T14:34:00.149Z,99.50
2017-10-21T14:39:13.570Z,99.70
2017-10-21T14:41:45.352Z,99.90
2017-10-21T14:44:22.690Z,99.80
2017-10-21T14:46:54.649Z,99.80
2017-10-21T14:49:26.341Z,99.80
2017-10-21T14:51:58.481Z,99.80
2017-10-21T14:54:28.747Z,99.70
2017-10-21T14:57:01.111Z,99.90
2017-10-21T14:59:31.667Z,99.90
2017-10-21T15:02:02.296Z,99.90
2017-10-21T15:04:34.977Z,99.90
2017-10-21T15:07:04.738Z,99.90
2017-10-21T15:09:36.242Z,99.90
2017-10-21T15:12:06.410Z,99.90
2017-10-21T15:14:37.069Z,99.90
2017-10-21T15:17:09.481Z,99.90
2017-10-21T15:19:39.554Z,99.90
2017-10-21T15:22:11.198Z,99.90
2017-10-21T15:24:42.384Z,99.90
2017-10-21T15:27:12.688Z,99.90
2017-10-21T15:29:44.393Z,99.90
2017-10-21T15:32:15.339Z,99.90
2017-10-21T15:34:46.728Z,99.90
2017-10-21T15:37:16.814Z,99.90
2017-10-21T15:39:46.933Z,99.90
2017-10-21T15:42:20.124Z,99.90
2017-10-21T15:44:55.276Z,99.90
2017-10-21T15:47:25.499Z,99.90
2017-10-21T15:49:55.532Z,99.90
2017-10-21T15:52:27.082Z,99.90
2017-10-21T15:54:57.846Z,99.90
2017-10-21T15:57:28.397Z,99.90
2017-10-21T16:02:33.146Z,99.90
2017-10-21T16:05:04.741Z,99.90
2017-10-21T16:07:35.945Z,99.90
2017-10-21T16:10:07.605Z,99.90
2017-10-21T16:12:38.846Z,99.90
2017-10-21T16:15:11.004Z,99.50
2017-10-21T16:17:42.045Z,99.60
2017-10-21T16:20:14.053Z,99.60
2017-10-21T16:22:45.939Z,99.00
2017-10-21T16:25:17.994Z,99.00
2017-10-21T16:27:49.659Z,98.70
2017-10-21T16:30:19.738Z,98.70
2017-10-21T16:33:00.349Z,99.10
2017-10-21T16:35:30.646Z,99.20
2017-10-21T16:43:27.044Z,99.30
2017-10-21T16:45:58.831Z,99.50
2017-10-21T16:48:29.922Z,99.50
2017-10-21T16:51:01.136Z,99.50
2017-10-21T16:53:32.874Z,99.70
2017-10-21T16:56:04.418Z,99.80
2017-10-21T16:58:34.770Z,99.70
2017-10-21T17:01:07.321Z,99.50
2017-10-21T17:03:41.870Z,99.70
2017-10-21T17:06:13.394Z,99.80
2017-10-21T17:08:43.870Z,99.70
2017-10-21T17:11:15.506Z,99.80
2017-10-21T17:13:45.965Z,99.80
2017-10-21T17:16:16.240Z,99.90
2017-10-21T17:18:48.528Z,99.90
2017-10-21T17:21:19.957Z,99.90
2017-10-21T17:23:50.357Z,99.90
2017-10-21T17:26:24.399Z,99.90
2017-10-21T17:28:55.958Z,99.90
2017-10-21T17:31:30.618Z,99.90
2017-10-21T17:34:00.773Z,99.90
2017-10-21T17:36:30.994Z,99.90
2017-10-21T17:39:01.373Z,99.90
2017-10-21T17:41:33.638Z,99.80
2017-10-21T17:44:03.834Z,99.90
2017-10-21T17:46:34.625Z,99.30
2017-10-21T17:49:07.147Z,99.00
2017-10-21T17:51:37.169Z,98.00
2017-10-21T17:54:08.016Z,97.60
2017-10-21T17:56:42.214Z,96.90
2017-10-21T17:59:18.055Z,96.90
2017-10-21T18:01:48.312Z,96.70
2017-10-21T18:04:21.558Z,96.50
2017-10-21T18:06:54.225Z,96.50
2017-10-21T18:09:25.054Z,96.50
2017-10-21T18:11:57.395Z,96.40
2017-10-21T18:14:29.326Z,96.30
2017-10-21T18:16:59.438Z,96.30
2017-10-21T18:19:29.670Z,96.20
2017-10-21T18:22:00.459Z,96.20
2017-10-21T18:24:38.641Z,95.90
2017-10-21T18:27:09.621Z,95.90
2017-10-21T18:29:46.676Z,95.50
2017-10-21T18:32:19.820Z,95.80
2017-10-21T18:34:50.843Z,95.80
2017-10-21T18:37:21.317Z,95.60
2017-10-21T18:39:52.321Z,96.00
2017-10-21T18:42:23.139Z,96.00
2017-10-21T18:44:54.118Z,96.10
2017-10-21T18:47:26.436Z,95.90
2017-10-21T18:50:01.397Z,95.90
2017-10-21T18:52:31.614Z,95.90
2017-10-21T18:55:05.015Z,95.90
2017-10-21T18:57:37.722Z,95.90
2017-10-21T19:00:10.341Z,95.60
2017-10-21T19:02:41.512Z,95.60
2017-10-21T19:05:15.059Z,95.50
2017-10-21T19:07:46.007Z,95.50
2017-10-21T19:10:16.334Z,95.90
2017-10-21T19:12:46.867Z,95.80
2017-10-21T19:15:17.382Z,95.50
2017-10-21T19:17:47.785Z,95.40
2017-10-21T19:20:21.607Z,95.40
2017-10-21T19:22:51.739Z,95.50
2017-10-21T19:25:23.608Z,95.30
2017-10-21T19:27:54.491Z,94.50
2017-10-21T19:30:24.594Z,94.50
2017-10-21T19:32:56.252Z,94.40
2017-10-21T19:35:26.893Z,94.60
2017-10-21T19:38:04.731Z,94.40
2017-10-21T19:40:36.194Z,94.40
2017-10-21T19:43:07.896Z,94.30
2017-10-21T19:45:38.079Z,94.10
2017-10-21T19:48:10.475Z,94.10
2017-10-21T19:50:41.309Z,94.20
2017-10-21T19:53:11.534Z,94.40
2017-10-21T19:55:42.128Z,94.00
2017-10-21T19:58:12.364Z,94.00
2017-10-21T20:00:44.599Z,93.70
2017-10-21T20:03:20.238Z,93.50
2017-10-21T20:05:51.137Z,93.40
2017-10-21T20:08:22.376Z,93.50
2017-10-21T20:10:53.231Z,93.40
2017-10-21T20:13:23.498Z,93.50
2017-10-21T20:15:55.892Z,93.40
2017-10-21T20:18:26.892Z,93.50
2017-10-21T20:20:58.475Z,93.50
2017-10-21T20:23:31.537Z,93.40
2017-10-21T20:26:02.602Z,93.40
2017-10-21T20:28:37.347Z,93.30
2017-10-21T20:31:09.291Z,93.30
2017-10-21T20:33:39.893Z,93.10
2017-10-21T20:36:10.291Z,93.00
2017-10-21T20:38:41.865Z,93.00
2017-10-21T20:41:13.297Z,92.70
2017-10-21T20:43:46.398Z,93.10
2017-10-21T20:46:20.063Z,92.70
2017-10-21T20:48:53.531Z,93.00
2017-10-21T20:51:24.131Z,93.20
2017-10-21T20:53:57.235Z,93.40
2017-10-21T20:56:27.413Z,93.70
2017-10-21T20:58:59.032Z,93.70
2017-10-21T21:01:31.049Z,93.70
2017-10-21T21:04:01.505Z,93.70
2017-10-21T21:06:35.907Z,94.00
2017-10-21T21:09:08.719Z,94.00
2017-10-21T21:11:40.138Z,94.00
2017-10-21T21:14:11.048Z,94.00
2017-10-21T21:16:41.502Z,94.10
2017-10-21T21:19:11.920Z,94.10
2017-10-21T21:21:45.210Z,94.30
2017-10-21T21:24:16.422Z,94.20
2017-10-21T21:26:47.930Z,94.30
2017-10-21T21:29:18.061Z,94.40
2017-10-21T21:31:48.358Z,95.60
2017-10-21T21:34:18.453Z,97.20
2017-10-21T21:36:49.955Z,97.50
2017-10-21T21:39:23.057Z,98.50
2017-10-21T21:41:54.445Z,98.40
2017-10-21T21:44:25.209Z,98.40
2017-10-21T21:46:56.332Z,98.40
2017-10-21T21:49:26.412Z,98.60
2017-10-21T21:51:57.488Z,98.30
2017-10-21T21:54:27.629Z,98.50
2017-10-21T21:56:57.726Z,98.40
2017-10-21T21:59:27.878Z,98.60
2017-10-21T22:01:59.563Z,99.00
2017-10-21T22:04:30.389Z,99.00
2017-10-21T22:07:01.518Z,98.40
2017-10-21T22:09:32.086Z,98.40
2017-10-21T22:12:03.138Z,98.60
2017-10-21T22:14:35.214Z,98.70
2017-10-21T22:17:06.533Z,98.30
2017-10-21T22:19:41.089Z,98.70
2017-10-21T22:22:11.835Z,98.70
2017-10-21T22:24:42.771Z,98.30
2017-10-21T22:27:15.893Z,98.50
2017-10-21T22:29:57.049Z,98.60
2017-10-21T22:32:27.639Z,98.60
2017-10-21T22:35:00.222Z,98.60
2017-10-21T22:37:33.323Z,98.60
2017-10-21T22:40:05.229Z,98.40
2017-10-21T22:42:35.466Z,98.40
2017-10-21T22:45:07.384Z,98.10
2017-10-21T22:47:39.388Z,98.20
2017-10-21T22:50:10.826Z,98.40
2017-10-21T22:52:41.686Z,98.00
2017-10-21T22:55:12.653Z,97.80
2017-10-21T22:57:43.111Z,98.20
2017-10-21T23:00:14.047Z,98.10
2017-10-21T23:02:44.319Z,97.90
2017-10-21T23:05:15.193Z,98.00
2017-10-21T23:07:51.786Z,97.70
2017-10-21T23:10:22.093Z,97.60
2017-10-21T23:12:59.607Z,97.50
2017-10-21T23:15:29.922Z,97.50
2017-10-21T23:18:03.017Z,97.50
2017-10-21T23:20:36.515Z,97.50
2017-10-21T23:23:10.962Z,97.60
2017-10-21T23:25:41.052Z,97.70
2017-10-21T23:28:11.977Z,97.50
2017-10-21T23:30:45.888Z,97.50
2017-10-21T23:33:18.269Z,97.40
2017-10-21T23:35:54.206Z,97.40
2017-10-21T23:38:26.823Z,97.40
2017-10-21T23:40:57.433Z,97.30
2017-10-21T23:43:29.665Z,97.40
2017-10-21T23:46:00.243Z,97.40
2017-10-21T23:48:32.174Z,97.20
2017-10-21T23:51:04.790Z,97.10
2017-10-21T23:53:36.117Z,97.10
2017-10-21T23:56:08.258Z,96.90
2017-10-21T23:58:40.578Z,96.90
